sensor_id;sensor_type;location;lat;lon;timestamp;pressure;altitude;pressure_sealevel;temperature;humidity
77112;BME280;66064;50.226;14.344;2023-05-29T00:00:21;99745.16;;;9.63;81.44
77112;BME280;66064;50.226;14.344;2023-05-29T00:03:07;99736.94;;;9.49;81.04
77112;BME280;66064;50.226;14.344;2023-05-29T00:05:35;99743.13;;;9.48;80.55
77112;BME280;66064;50.226;14.344;2023-05-29T00:08:01;99747.44;;;9.43;80.64
77112;BME280;66064;50.226;14.344;2023-05-29T00:10:27;99745.53;;;9.34;80.18
77112;BME280;66064;50.226;14.344;2023-05-29T00:12:53;99748.09;;;9.30;79.48
77112;BME280;66064;50.226;14.344;2023-05-29T00:15:21;99750.69;;;9.24;79.22
77112;BME280;66064;50.226;14.344;2023-05-29T00:17:47;99755.91;;;9.21;80.29
77112;BME280;66064;50.226;14.344;2023-05-29T00:20:15;99755.91;;;9.21;80.29
77112;BME280;66064;50.226;14.344;2023-05-29T00:22:41;99750.47;;;9.15;81.97
77112;BME280;66064;50.226;14.344;2023-05-29T00:25:07;99754.00;;;9.13;80.99
77112;BME280;66064;50.226;14.344;2023-05-29T00:27:34;99757.34;;;9.03;82.49
77112;BME280;66064;50.226;14.344;2023-05-29T00:30:01;99755.50;;;8.99;81.89
77112;BME280;66064;50.226;14.344;2023-05-29T00:32:28;99759.88;;;8.97;81.43
77112;BME280;66064;50.226;14.344;2023-05-29T00:34:54;99755.44;;;8.96;81.70
77112;BME280;66064;50.226;14.344;2023-05-29T00:37:21;99755.38;;;8.93;82.26
77112;BME280;66064;50.226;14.344;2023-05-29T00:39:48;99757.06;;;8.88;82.52
77112;BME280;66064;50.226;14.344;2023-05-29T00:42:14;99744.66;;;8.87;82.07
77112;BME280;66064;50.226;14.344;2023-05-29T00:44:41;99747.25;;;8.84;84.25
77112;BME280;66064;50.226;14.344;2023-05-29T00:47:07;99744.59;;;8.84;84.48
77112;BME280;66064;50.226;14.344;2023-05-29T00:49:34;99738.38;;;8.84;85.00
77112;BME280;66064;50.226;14.344;2023-05-29T00:52:01;99720.53;;;8.75;85.25
77112;BME280;66064;50.226;14.344;2023-05-29T00:54:29;99733.84;;;8.78;86.32
77112;BME280;66064;50.226;14.344;2023-05-29T00:56:57;99737.47;;;8.83;86.48
77112;BME280;66064;50.226;14.344;2023-05-29T00:59:26;99728.59;;;8.81;85.41
77112;BME280;66064;50.226;14.344;2023-05-29T01:01:54;99728.59;;;8.81;85.47
77112;BME280;66064;50.226;14.344;2023-05-29T01:04:21;99736.53;;;8.80;86.02
77112;BME280;66064;50.226;14.344;2023-05-29T01:06:49;99727.66;;;8.79;85.55
77112;BME280;66064;50.226;14.344;2023-05-29T01:09:15;99727.66;;;8.79;86.04
77112;BME280;66064;50.226;14.344;2023-05-29T01:12:03;99720.56;;;8.76;85.57
77112;BME280;66064;50.226;14.344;2023-05-29T01:17:19;99722.16;;;8.68;86.17
77112;BME280;66064;50.226;14.344;2023-05-29T01:23:19;99727.31;;;8.62;86.14
77112;BME280;66064;50.226;14.344;2023-05-29T01:28:26;99733.25;;;8.49;84.63
77112;BME280;66064;50.226;14.344;2023-05-29T01:30:54;99738.44;;;8.45;84.94
77112;BME280;66064;50.226;14.344;2023-05-29T01:33:20;99733.03;;;8.38;86.37
77112;BME280;66064;50.226;14.344;2023-05-29T01:35:46;99732.16;;;8.39;86.23
77112;BME280;66064;50.226;14.344;2023-05-29T01:38:12;99740.72;;;8.29;86.41
77112;BME280;66064;50.226;14.344;2023-05-29T01:40:38;99747.75;;;8.26;86.28
77112;BME280;66064;50.226;14.344;2023-05-29T01:43:05;99750.19;;;8.18;85.19
77112;BME280;66064;50.226;14.344;2023-05-29T01:45:32;99742.09;;;8.11;84.93
77112;BME280;66064;50.226;14.344;2023-05-29T01:47:58;99745.38;;;8.00;85.01
77112;BME280;66064;50.226;14.344;2023-05-29T01:50:26;99737.25;;;7.93;84.81
77112;BME280;66064;50.226;14.344;2023-05-29T01:52:53;99743.28;;;7.87;84.30
77112;BME280;66064;50.226;14.344;2023-05-29T01:55:19;99735.22;;;7.83;84.25
77112;BME280;66064;50.226;14.344;2023-05-29T01:57:45;99734.28;;;7.81;84.35
77112;BME280;66064;50.226;14.344;2023-05-29T02:00:12;99737.72;;;7.75;85.54
77112;BME280;66064;50.226;14.344;2023-05-29T02:02:39;99735.03;;;7.73;86.28
77112;BME280;66064;50.226;14.344;2023-05-29T02:05:07;99734.16;;;7.75;86.26
77112;BME280;66064;50.226;14.344;2023-05-29T02:07:34;99729.81;;;7.77;87.55
77112;BME280;66064;50.226;14.344;2023-05-29T02:10:00;99734.16;;;7.75;88.95
77112;BME280;66064;50.226;14.344;2023-05-29T02:12:26;99724.50;;;7.77;89.63
77112;BME280;66064;50.226;14.344;2023-05-29T02:14:52;99724.56;;;7.80;89.29
77112;BME280;66064;50.226;14.344;2023-05-29T02:17:18;99729.72;;;7.73;88.95
77112;BME280;66064;50.226;14.344;2023-05-29T02:19:44;99708.38;;;7.67;90.30
77112;BME280;66064;50.226;14.344;2023-05-29T02:22:11;99711.97;;;7.69;89.81
77112;BME280;66064;50.226;14.344;2023-05-29T02:24:37;99720.97;;;7.76;90.15
77112;BME280;66064;50.226;14.344;2023-05-29T02:27:03;99709.41;;;7.72;90.38
77112;BME280;66064;50.226;14.344;2023-05-29T02:29:30;99714.66;;;7.71;89.74
77112;BME280;66064;50.226;14.344;2023-05-29T02:31:56;99711.03;;;7.67;89.81
77112;BME280;66064;50.226;14.344;2023-05-29T02:34:22;99711.88;;;7.66;89.13
77112;BME280;66064;50.226;14.344;2023-05-29T02:36:51;99707.22;;;7.56;88.47
77112;BME280;66064;50.226;14.344;2023-05-29T02:39:20;99714.16;;;7.51;87.64
77112;BME280;66064;50.226;14.344;2023-05-29T02:41:46;99733.56;;;7.50;86.82
77112;BME280;66064;50.226;14.344;2023-05-29T02:44:12;99723.69;;;7.43;86.03
77112;BME280;66064;50.226;14.344;2023-05-29T02:46:38;99711.91;;;7.32;86.41
77112;BME280;66064;50.226;14.344;2023-05-29T02:49:04;99710.91;;;7.27;88.00
77112;BME280;66064;50.226;14.344;2023-05-29T02:51:30;99717.19;;;7.30;88.20
77112;BME280;66064;50.226;14.344;2023-05-29T02:53:58;99724.22;;;7.30;88.28
77112;BME280;66064;50.226;14.344;2023-05-29T02:56:24;99714.31;;;7.23;88.38
77112;BME280;66064;50.226;14.344;2023-05-29T02:58:50;99725.97;;;7.29;87.83
77112;BME280;66064;50.226;14.344;2023-05-29T03:01:17;99718.84;;;7.27;87.79
77112;BME280;66064;50.226;14.344;2023-05-29T03:03:43;99719.72;;;7.26;88.04
77112;BME280;66064;50.226;14.344;2023-05-29T03:06:09;99726.78;;;7.27;88.25
77112;BME280;66064;50.226;14.344;2023-05-29T03:08:36;99724.16;;;7.27;89.98
77112;BME280;66064;50.226;14.344;2023-05-29T03:11:13;99724.19;;;7.28;90.48
77112;BME280;66064;50.226;14.344;2023-05-29T03:13:40;99721.59;;;7.31;90.93
77112;BME280;66064;50.226;14.344;2023-05-29T03:16:06;99727.78;;;7.32;91.54
77112;BME280;66064;50.226;14.344;2023-05-29T03:18:34;99734.13;;;7.38;91.76
77112;BME280;66064;50.226;14.344;2023-05-29T03:21:00;99733.41;;;7.44;91.00
77112;BME280;66064;50.226;14.344;2023-05-29T03:23:27;99720.09;;;7.41;90.28
77112;BME280;66064;50.226;14.344;2023-05-29T03:25:53;99731.78;;;7.51;89.45
77112;BME280;66064;50.226;14.344;2023-05-29T03:28:19;99736.19;;;7.50;88.39
77112;BME280;66064;50.226;14.344;2023-05-29T03:30:45;99737.09;;;7.51;88.05
77112;BME280;66064;50.226;14.344;2023-05-29T03:33:11;99743.28;;;7.51;87.43
77112;BME280;66064;50.226;14.344;2023-05-29T03:35:37;99748.63;;;7.53;86.56
77112;BME280;66064;50.226;14.344;2023-05-29T03:38:03;99740.69;;;7.53;86.67
77112;BME280;66064;50.226;14.344;2023-05-29T03:40:30;99746.88;;;7.53;86.17
77112;BME280;66064;50.226;14.344;2023-05-29T03:42:57;99755.94;;;7.61;85.83
77112;BME280;66064;50.226;14.344;2023-05-29T03:45:22;99742.69;;;7.61;86.96
77112;BME280;66064;50.226;14.344;2023-05-29T03:47:50;99754.44;;;7.72;88.62
77112;BME280;66064;50.226;14.344;2023-05-29T03:50:15;99759.03;;;7.81;88.62
77112;BME280;66064;50.226;14.344;2023-05-29T03:52:42;99758.47;;;7.93;88.40
77112;BME280;66064;50.226;14.344;2023-05-29T03:55:09;99745.09;;;7.88;88.78
77112;BME280;66064;50.226;14.344;2023-05-29T03:57:40;99755.16;;;8.03;88.56
77112;BME280;66064;50.226;14.344;2023-05-29T04:00:10;99749.94;;;8.06;88.54
77112;BME280;66064;50.226;14.344;2023-05-29T04:02:38;99751.44;;;8.32;87.67
77112;BME280;66064;50.226;14.344;2023-05-29T04:05:08;99753.81;;;8.59;87.12
77112;BME280;66064;50.226;14.344;2023-05-29T04:07:38;99749.69;;;8.73;85.99
77112;BME280;66064;50.226;14.344;2023-05-29T04:10:06;99759.22;;;9.07;85.49
77112;BME280;66064;50.226;14.344;2023-05-29T04:12:33;99756.38;;;9.46;83.62
77112;BME280;66064;50.226;14.344;2023-05-29T04:14:59;99751.00;;;9.96;81.01
77112;BME280;66064;50.226;14.344;2023-05-29T04:17:25;99750.53;;;10.20;78.81
77112;BME280;66064;50.226;14.344;2023-05-29T04:19:51;99754.78;;;10.71;77.23
77112;BME280;66064;50.226;14.344;2023-05-29T04:22:18;99743.94;;;11.31;76.27
77112;BME280;66064;50.226;14.344;2023-05-29T04:24:46;99745.38;;;11.89;72.76
77112;BME280;66064;50.226;14.344;2023-05-29T04:27:13;99752.84;;;12.39;69.75
77112;BME280;66064;50.226;14.344;2023-05-29T04:29:40;99752.22;;;12.95;69.03
77112;BME280;66064;50.226;14.344;2023-05-29T04:32:08;99759.50;;;13.48;65.64
77112;BME280;66064;50.226;14.344;2023-05-29T04:34:37;99752.41;;;14.15;63.03
77112;BME280;66064;50.226;14.344;2023-05-29T04:37:06;99755.91;;;14.66;62.15
77112;BME280;66064;50.226;14.344;2023-05-29T04:39:32;99748.75;;;14.77;60.00
77112;BME280;66064;50.226;14.344;2023-05-29T04:41:58;99761.06;;;15.12;60.70
77112;BME280;66064;50.226;14.344;2023-05-29T04:44:26;99762.66;;;15.57;58.88
77112;BME280;66064;50.226;14.344;2023-05-29T04:46:52;99770.25;;;16.13;58.11
77112;BME280;66064;50.226;14.344;2023-05-29T04:49:19;99768.88;;;16.61;53.62
77112;BME280;66064;50.226;14.344;2023-05-29T04:51:46;99769.53;;;16.88;54.32
77112;BME280;66064;50.226;14.344;2023-05-29T04:54:12;99769.16;;;17.17;54.20
77112;BME280;66064;50.226;14.344;2023-05-29T04:56:38;99763.34;;;17.48;54.15
77112;BME280;66064;50.226;14.344;2023-05-29T04:59:06;99760.22;;;18.33;51.55
77112;BME280;66064;50.226;14.344;2023-05-29T05:01:32;99764.78;;;19.20;47.12
77112;BME280;66064;50.226;14.344;2023-05-29T05:04:01;99769.84;;;19.35;45.29
77112;BME280;66064;50.226;14.344;2023-05-29T05:06:27;99761.75;;;19.35;44.73
77112;BME280;66064;50.226;14.344;2023-05-29T05:08:54;99757.75;;;20.29;42.84
77112;BME280;66064;50.226;14.344;2023-05-29T05:11:22;99752.78;;;20.78;41.03
77112;BME280;66064;50.226;14.344;2023-05-29T05:13:48;99752.97;;;21.63;40.11
77112;BME280;66064;50.226;14.344;2023-05-29T05:16:15;99757.19;;;21.74;39.54
77112;BME280;66064;50.226;14.344;2023-05-29T05:18:43;99751.66;;;21.77;39.54
77112;BME280;66064;50.226;14.344;2023-05-29T05:21:09;99757.38;;;22.23;38.50
77112;BME280;66064;50.226;14.344;2023-05-29T05:23:36;99760.31;;;22.68;36.45
77112;BME280;66064;50.226;14.344;2023-05-29T05:26:02;99754.78;;;22.45;35.59
77112;BME280;66064;50.226;14.344;2023-05-29T05:28:28;99756.22;;;23.30;35.01
77112;BME280;66064;50.226;14.344;2023-05-29T05:30:54;99747.97;;;23.33;33.67
77112;BME280;66064;50.226;14.344;2023-05-29T05:33:20;99755.88;;;23.62;33.88
77112;BME280;66064;50.226;14.344;2023-05-29T05:35:46;99749.19;;;24.36;33.75
77112;BME280;66064;50.226;14.344;2023-05-29T05:38:12;99754.66;;;24.99;33.00
77112;BME280;66064;50.226;14.344;2023-05-29T05:40:38;99755.34;;;25.98;30.27
77112;BME280;66064;50.226;14.344;2023-05-29T05:43:05;99755.09;;;26.21;29.56
77112;BME280;66064;50.226;14.344;2023-05-29T05:45:31;99751.19;;;25.91;29.60
77112;BME280;66064;50.226;14.344;2023-05-29T05:47:57;99754.91;;;26.07;29.26
77112;BME280;66064;50.226;14.344;2023-05-29T05:50:24;99762.66;;;26.69;27.12
77112;BME280;66064;50.226;14.344;2023-05-29T05:52:50;99759.38;;;26.45;27.30
77112;BME280;66064;50.226;14.344;2023-05-29T05:55:17;99768.66;;;26.93;27.38
77112;BME280;66064;50.226;14.344;2023-05-29T05:57:42;99771.34;;;27.28;26.36
77112;BME280;66064;50.226;14.344;2023-05-29T06:00:09;99764.38;;;27.55;25.56
77112;BME280;66064;50.226;14.344;2023-05-29T06:02:39;99767.50;;;27.80;25.73
77112;BME280;66064;50.226;14.344;2023-05-29T06:05:08;99756.66;;;28.26;25.25
77112;BME280;66064;50.226;14.344;2023-05-29T06:07:35;99760.81;;;28.63;25.16
77112;BME280;66064;50.226;14.344;2023-05-29T06:10:03;99762.03;;;28.73;25.17
77112;BME280;66064;50.226;14.344;2023-05-29T06:12:29;99761.97;;;29.33;24.53
77112;BME280;66064;50.226;14.344;2023-05-29T06:14:56;99755.41;;;29.64;24.05
77112;BME280;66064;50.226;14.344;2023-05-29T06:17:22;99770.28;;;30.96;22.90
77112;BME280;66064;50.226;14.344;2023-05-29T06:19:49;99766.78;;;31.95;23.29
77112;BME280;66064;50.226;14.344;2023-05-29T06:22:15;99770.78;;;32.76;20.81
77112;BME280;66064;50.226;14.344;2023-05-29T06:24:41;99757.22;;;32.25;19.06
77112;BME280;66064;50.226;14.344;2023-05-29T06:27:07;99761.84;;;33.18;18.85
77112;BME280;66064;50.226;14.344;2023-05-29T06:29:33;99779.16;;;33.20;19.30
77112;BME280;66064;50.226;14.344;2023-05-29T06:31:59;99758.31;;;34.07;17.35
77112;BME280;66064;50.226;14.344;2023-05-29T06:34:26;99775.41;;;34.76;16.04
77112;BME280;66064;50.226;14.344;2023-05-29T06:36:52;99778.56;;;34.83;18.45
77112;BME280;66064;50.226;14.344;2023-05-29T06:39:18;99778.69;;;34.27;16.13
77112;BME280;66064;50.226;14.344;2023-05-29T06:41:46;99790.31;;;33.76;17.82
77112;BME280;66064;50.226;14.344;2023-05-29T06:44:12;99790.25;;;35.07;16.80
77112;BME280;66064;50.226;14.344;2023-05-29T06:46:38;99783.94;;;35.88;15.35
77112;BME280;66064;50.226;14.344;2023-05-29T06:49:04;99787.28;;;34.67;16.37
77112;BME280;66064;50.226;14.344;2023-05-29T06:51:30;99788.31;;;35.39;16.66
77112;BME280;66064;50.226;14.344;2023-05-29T06:53:58;99783.50;;;34.14;16.62
77112;BME280;66064;50.226;14.344;2023-05-29T06:56:23;99798.91;;;35.14;16.44
77112;BME280;66064;50.226;14.344;2023-05-29T06:58:50;99785.91;;;36.66;15.80
77112;BME280;66064;50.226;14.344;2023-05-29T07:01:15;99787.25;;;36.22;15.03
77112;BME280;66064;50.226;14.344;2023-05-29T07:03:46;99787.41;;;36.90;15.57
77112;BME280;66064;50.226;14.344;2023-05-29T07:06:12;99792.00;;;35.70;15.15
77112;BME280;66064;50.226;14.344;2023-05-29T07:08:38;99792.78;;;35.52;16.10
77112;BME280;66064;50.226;14.344;2023-05-29T07:11:04;99793.47;;;36.45;16.28
77112;BME280;66064;50.226;14.344;2023-05-29T07:13:30;99783.78;;;38.39;14.04
77112;BME280;66064;50.226;14.344;2023-05-29T07:15:56;99780.13;;;37.74;13.05
77112;BME280;66064;50.226;14.344;2023-05-29T07:18:22;99784.91;;;38.19;14.62
77112;BME280;66064;50.226;14.344;2023-05-29T07:20:47;99790.75;;;39.93;12.75
77112;BME280;66064;50.226;14.344;2023-05-29T07:23:14;99793.19;;;39.96;11.82
77112;BME280;66064;50.226;14.344;2023-05-29T07:25:39;99792.25;;;39.62;11.47
77112;BME280;66064;50.226;14.344;2023-05-29T07:28:06;99796.56;;;39.82;12.46
77112;BME280;66064;50.226;14.344;2023-05-29T07:30:31;99780.19;;;39.27;11.46
77112;BME280;66064;50.226;14.344;2023-05-29T07:32:58;99769.94;;;39.10;11.40
77112;BME280;66064;50.226;14.344;2023-05-29T07:35:24;99770.34;;;38.52;11.05
77112;BME280;66064;50.226;14.344;2023-05-29T07:37:50;99775.03;;;39.40;11.02
77112;BME280;66064;50.226;14.344;2023-05-29T07:40:17;99777.75;;;39.32;11.94
77112;BME280;66064;50.226;14.344;2023-05-29T07:42:43;99781.59;;;39.83;11.00
77112;BME280;66064;50.226;14.344;2023-05-29T07:45:09;99776.19;;;40.15;11.68
77112;BME280;66064;50.226;14.344;2023-05-29T07:47:37;99775.41;;;41.14;11.57
77112;BME280;66064;50.226;14.344;2023-05-29T07:50:02;99775.06;;;41.57;9.63
77112;BME280;66064;50.226;14.344;2023-05-29T07:52:29;99771.25;;;42.14;9.62
77112;BME280;66064;50.226;14.344;2023-05-29T07:54:55;99773.78;;;42.93;7.85
77112;BME280;66064;50.226;14.344;2023-05-29T07:57:21;99767.28;;;42.00;8.53
77112;BME280;66064;50.226;14.344;2023-05-29T07:59:47;99765.91;;;41.88;7.76
77112;BME280;66064;50.226;14.344;2023-05-29T08:02:15;99776.81;;;39.93;9.58
77112;BME280;66064;50.226;14.344;2023-05-29T08:04:42;99775.25;;;41.56;10.42
77112;BME280;66064;50.226;14.344;2023-05-29T08:07:08;99772.78;;;43.32;8.81
77112;BME280;66064;50.226;14.344;2023-05-29T08:09:35;99778.25;;;43.25;7.84
77112;BME280;66064;50.226;14.344;2023-05-29T08:12:01;99784.41;;;41.89;8.73
77112;BME280;66064;50.226;14.344;2023-05-29T08:14:28;99769.25;;;41.75;8.88
77112;BME280;66064;50.226;14.344;2023-05-29T08:16:54;99784.25;;;43.60;8.42
77112;BME280;66064;50.226;14.344;2023-05-29T08:19:20;99786.16;;;41.98;8.82
77112;BME280;66064;50.226;14.344;2023-05-29T08:21:46;99787.63;;;41.29;9.40
77112;BME280;66064;50.226;14.344;2023-05-29T08:24:12;99782.75;;;41.55;9.27
77112;BME280;66064;50.226;14.344;2023-05-29T08:26:38;99790.75;;;44.19;9.40
77112;BME280;66064;50.226;14.344;2023-05-29T08:29:04;99789.69;;;43.91;8.01
77112;BME280;66064;50.226;14.344;2023-05-29T08:31:30;99786.53;;;43.56;7.38
77112;BME280;66064;50.226;14.344;2023-05-29T08:33:56;99793.94;;;43.12;7.86
77112;BME280;66064;50.226;14.344;2023-05-29T08:36:22;99791.81;;;44.18;8.30
77112;BME280;66064;50.226;14.344;2023-05-29T08:38:48;99794.91;;;43.94;7.62
77112;BME280;66064;50.226;14.344;2023-05-29T08:41:21;99787.88;;;42.77;7.29
77112;BME280;66064;50.226;14.344;2023-05-29T08:43:49;99787.97;;;42.61;8.27
77112;BME280;66064;50.226;14.344;2023-05-29T08:46:17;99783.03;;;42.32;8.23
77112;BME280;66064;50.226;14.344;2023-05-29T08:48:48;99793.16;;;43.64;8.17
77112;BME280;66064;50.226;14.344;2023-05-29T08:51:19;99773.16;;;44.76;9.04
77112;BME280;66064;50.226;14.344;2023-05-29T08:53:47;99776.31;;;45.30;7.59
77112;BME280;66064;50.226;14.344;2023-05-29T08:56:13;99772.09;;;44.98;6.26
77112;BME280;66064;50.226;14.344;2023-05-29T08:58:39;99769.00;;;43.92;7.21
77112;BME280;66064;50.226;14.344;2023-05-29T09:01:06;99786.53;;;44.09;6.65
77112;BME280;66064;50.226;14.344;2023-05-29T09:03:31;99779.84;;;44.75;7.75
77112;BME280;66064;50.226;14.344;2023-05-29T09:05:59;99790.78;;;44.05;7.29
77112;BME280;66064;50.226;14.344;2023-05-29T09:08:25;99785.31;;;41.73;7.85
77112;BME280;66064;50.226;14.344;2023-05-29T09:10:54;99796.97;;;43.48;8.55
77112;BME280;66064;50.226;14.344;2023-05-29T09:13:20;99796.16;;;43.39;9.04
77112;BME280;66064;50.226;14.344;2023-05-29T09:15:46;99784.69;;;42.18;8.50
77112;BME280;66064;50.226;14.344;2023-05-29T09:18:12;99775.88;;;41.74;8.30
77112;BME280;66064;50.226;14.344;2023-05-29T09:20:39;99782.25;;;42.15;9.81
77112;BME280;66064;50.226;14.344;2023-05-29T09:23:07;99787.66;;;42.56;9.72
77112;BME280;66064;50.226;14.344;2023-05-29T09:25:44;99787.22;;;42.36;8.56
77112;BME280;66064;50.226;14.344;2023-05-29T09:28:17;99792.72;;;39.75;9.36
77112;BME280;66064;50.226;14.344;2023-05-29T09:30:45;99788.66;;;41.52;9.27
77112;BME280;66064;50.226;14.344;2023-05-29T09:33:14;99785.19;;;42.61;9.36
77112;BME280;66064;50.226;14.344;2023-05-29T09:35:42;99782.66;;;40.58;8.72
77112;BME280;66064;50.226;14.344;2023-05-29T09:38:10;99789.88;;;42.21;7.99
77112;BME280;66064;50.226;14.344;2023-05-29T09:40:37;99792.09;;;42.03;8.44
77112;BME280;66064;50.226;14.344;2023-05-29T09:43:05;99786.69;;;40.21;9.18
77112;BME280;66064;50.226;14.344;2023-05-29T09:45:36;99780.63;;;40.26;9.12
77112;BME280;66064;50.226;14.344;2023-05-29T09:48:02;99794.59;;;40.00;9.16
77112;BME280;66064;50.226;14.344;2023-05-29T09:50:28;99789.16;;;36.71;11.15
77112;BME280;66064;50.226;14.344;2023-05-29T09:52:57;99799.19;;;35.52;13.20
77112;BME280;66064;50.226;14.344;2023-05-29T09:55:25;99804.13;;;35.49;12.51
77112;BME280;66064;50.226;14.344;2023-05-29T09:57:54;99791.47;;;37.05;11.59
77112;BME280;66064;50.226;14.344;2023-05-29T10:00:20;99796.06;;;37.72;11.36
77112;BME280;66064;50.226;14.344;2023-05-29T10:02:50;99788.84;;;36.65;11.65
77112;BME280;66064;50.226;14.344;2023-05-29T10:05:16;99792.06;;;37.84;12.42
77112;BME280;66064;50.226;14.344;2023-05-29T10:07:46;99787.34;;;38.76;11.26
77112;BME280;66064;50.226;14.344;2023-05-29T10:10:16;99784.00;;;39.26;10.55
77112;BME280;66064;50.226;14.344;2023-05-29T10:12:50;99782.75;;;36.81;11.86
77112;BME280;66064;50.226;14.344;2023-05-29T10:15:17;99790.56;;;35.46;13.20
77112;BME280;66064;50.226;14.344;2023-05-29T10:18:23;99783.59;;;37.29;13.13
77112;BME280;66064;50.226;14.344;2023-05-29T10:20:50;99779.44;;;35.36;12.50
77112;BME280;66064;50.226;14.344;2023-05-29T10:23:22;99776.31;;;36.90;12.94
77112;BME280;66064;50.226;14.344;2023-05-29T10:25:52;99775.75;;;38.63;11.48
77112;BME280;66064;50.226;14.344;2023-05-29T10:28:20;99773.66;;;39.88;10.94
77112;BME280;66064;50.226;14.344;2023-05-29T10:30:57;99774.25;;;39.30;11.42
77112;BME280;66064;50.226;14.344;2023-05-29T10:36:31;99769.47;;;38.34;10.85
77112;BME280;66064;50.226;14.344;2023-05-29T10:39:02;99772.59;;;37.66;12.57
77112;BME280;66064;50.226;14.344;2023-05-29T10:41:29;99770.75;;;37.19;13.24
77112;BME280;66064;50.226;14.344;2023-05-29T10:43:58;99765.66;;;36.95;12.11
77112;BME280;66064;50.226;14.344;2023-05-29T10:49:21;99756.44;;;37.13;12.70
77112;BME280;66064;50.226;14.344;2023-05-29T10:51:47;99765.47;;;36.48;12.94
77112;BME280;66064;50.226;14.344;2023-05-29T10:54:21;99764.41;;;34.11;13.99
77112;BME280;66064;50.226;14.344;2023-05-29T10:57:00;99765.31;;;32.39;15.25
77112;BME280;66064;50.226;14.344;2023-05-29T10:59:27;99775.75;;;32.10;17.09
77112;BME280;66064;50.226;14.344;2023-05-29T11:01:54;99757.47;;;33.16;18.21
77112;BME280;66064;50.226;14.344;2023-05-29T11:06:47;99750.25;;;35.53;13.67
77112;BME280;66064;50.226;14.344;2023-05-29T11:09:36;99741.63;;;36.17;13.86
77112;BME280;66064;50.226;14.344;2023-05-29T11:12:32;99736.13;;;36.36;14.01
77112;BME280;66064;50.226;14.344;2023-05-29T11:15:11;99729.47;;;36.08;14.10
77112;BME280;66064;50.226;14.344;2023-05-29T11:20:07;99742.34;;;30.89;15.60
77112;BME280;66064;50.226;14.344;2023-05-29T11:25:13;99735.66;;;32.06;17.94
77112;BME280;66064;50.226;14.344;2023-05-29T11:27:39;99730.06;;;32.08;18.18
77112;BME280;66064;50.226;14.344;2023-05-29T11:30:06;99725.44;;;32.32;18.02
77112;BME280;66064;50.226;14.344;2023-05-29T11:32:36;99728.94;;;33.61;16.84
77112;BME280;66064;50.226;14.344;2023-05-29T11:35:09;99729.25;;;33.12;17.53
77112;BME280;66064;50.226;14.344;2023-05-29T11:37:36;99727.22;;;33.03;17.41
77112;BME280;66064;50.226;14.344;2023-05-29T11:40:06;99733.38;;;33.07;17.34
77112;BME280;66064;50.226;14.344;2023-05-29T11:42:36;99728.50;;;32.40;16.17
77112;BME280;66064;50.226;14.344;2023-05-29T11:45:24;99729.34;;;32.17;17.91
77112;BME280;66064;50.226;14.344;2023-05-29T11:47:55;99728.63;;;32.39;17.34
77112;BME280;66064;50.226;14.344;2023-05-29T11:50:23;99737.09;;;31.62;17.66
77112;BME280;66064;50.226;14.344;2023-05-29T11:52:49;99739.94;;;31.74;18.53
77112;BME280;66064;50.226;14.344;2023-05-29T11:55:17;99727.63;;;31.54;18.41
77112;BME280;66064;50.226;14.344;2023-05-29T11:57:44;99737.47;;;31.33;19.71
77112;BME280;66064;50.226;14.344;2023-05-29T12:00:13;99729.13;;;30.69;17.60
77112;BME280;66064;50.226;14.344;2023-05-29T12:02:40;99722.38;;;29.80;17.77
77112;BME280;66064;50.226;14.344;2023-05-29T12:05:09;99727.28;;;29.04;23.45
77112;BME280;66064;50.226;14.344;2023-05-29T12:07:36;99733.91;;;28.85;22.58
77112;BME280;66064;50.226;14.344;2023-05-29T12:10:13;99719.66;;;29.09;24.40
77112;BME280;66064;50.226;14.344;2023-05-29T12:12:40;99716.19;;;28.91;21.30
77112;BME280;66064;50.226;14.344;2023-05-29T12:15:08;99708.31;;;28.71;21.83
77112;BME280;66064;50.226;14.344;2023-05-29T12:17:37;99718.06;;;28.61;21.73
77112;BME280;66064;50.226;14.344;2023-05-29T12:20:04;99717.28;;;28.13;22.69
77112;BME280;66064;50.226;14.344;2023-05-29T12:22:36;99715.81;;;28.23;23.07
77112;BME280;66064;50.226;14.344;2023-05-29T12:25:09;99717.91;;;27.06;21.39
77112;BME280;66064;50.226;14.344;2023-05-29T12:27:47;99713.84;;;27.13;23.61
77112;BME280;66064;50.226;14.344;2023-05-29T12:30:19;99719.16;;;27.16;26.32
77112;BME280;66064;50.226;14.344;2023-05-29T12:32:50;99709.38;;;26.95;24.10
77112;BME280;66064;50.226;14.344;2023-05-29T12:37:55;99712.28;;;27.09;24.04
77112;BME280;66064;50.226;14.344;2023-05-29T12:40:26;99704.53;;;27.17;26.28
77112;BME280;66064;50.226;14.344;2023-05-29T12:43:00;99707.13;;;27.03;26.06
77112;BME280;66064;50.226;14.344;2023-05-29T12:45:29;99698.22;;;26.82;23.04
77112;BME280;66064;50.226;14.344;2023-05-29T12:47:57;99698.13;;;26.84;23.99
77112;BME280;66064;50.226;14.344;2023-05-29T12:50:25;99705.63;;;26.63;27.19
77112;BME280;66064;50.226;14.344;2023-05-29T12:52:55;99703.91;;;26.45;27.01
77112;BME280;66064;50.226;14.344;2023-05-29T12:55:21;99696.00;;;26.73;24.67
77112;BME280;66064;50.226;14.344;2023-05-29T12:57:47;99697.50;;;26.79;26.75
77112;BME280;66064;50.226;14.344;2023-05-29T13:00:14;99693.63;;;26.83;27.73
77112;BME280;66064;50.226;14.344;2023-05-29T13:02:40;99695.34;;;26.68;25.02
77112;BME280;66064;50.226;14.344;2023-05-29T13:05:06;99699.47;;;26.60;25.76
77112;BME280;66064;50.226;14.344;2023-05-29T13:07:33;99701.25;;;26.43;24.89
77112;BME280;66064;50.226;14.344;2023-05-29T13:09:59;99697.94;;;26.01;28.79
77112;BME280;66064;50.226;14.344;2023-05-29T13:12:27;99699.50;;;26.24;26.53
77112;BME280;66064;50.226;14.344;2023-05-29T13:14:53;99694.97;;;26.59;28.13
77112;BME280;66064;50.226;14.344;2023-05-29T13:17:22;99686.28;;;26.51;29.19
77112;BME280;66064;50.226;14.344;2023-05-29T13:19:49;99697.94;;;26.54;27.30
77112;BME280;66064;50.226;14.344;2023-05-29T13:22:15;99693.91;;;26.78;26.14